EWG8KG EDDK-LGIR
Flight info
| Callsign | EWG8KG |
|---|---|
| Flight time | 2h 53m |
| Altitude | 37000 |
| Route | KUMIK1R KUMIK L603 TESGA DCT ESATI DCT DETEV DCT DINKU DCT BESNI DCT GOMIG DCT BEDOX DCT LURID DCT ENFAR DCT BITLA DCT KEA UL607 GIVIS T514 XAVIS |
| Aircraft | A320/M-SDE3FGHIRWY/LB1 |
Departure
| Time | 2026-04-25 18:20 |
|---|---|
| Airport | Cologne Bonn Airport (EDDK) |
Arrival
| Time | 2026-04-25 21:13 |
|---|---|
| Airport | Heraklion International Nikos Kazantzakis Airport (LGIR) |
| Time | Latitude | Longitude | Altitude | Speed | Heading |
|---|---|---|---|---|---|
| 2026-04-25 17:37 | 50.87875 | 7.12455 | 232 ft | 0 kts | 288° |
| 2026-04-25 18:07 | 50.87873 | 7.12460 | 232 ft | 3 kts | 288° |
| 2026-04-25 18:07 | 50.87865 | 7.12500 | 234 ft | 4 kts | 288° |
| 2026-04-25 18:07 | 50.87859 | 7.12534 | 232 ft | 4 kts | 290° |
| 2026-04-25 18:08 | 50.87845 | 7.12567 | 235 ft | 4 kts | 331° |
| 2026-04-25 18:08 | 50.87821 | 7.12576 | 234 ft | 4 kts | 12° |
| 2026-04-25 18:08 | 50.87814 | 7.12574 | 233 ft | 0 kts | 18° |
| 2026-04-25 18:11 | 50.87814 | 7.12575 | 233 ft | 0 kts | 22° |
| 2026-04-25 18:11 | 50.87814 | 7.12613 | 234 ft | 7 kts | 95° |
| 2026-04-25 18:11 | 50.87778 | 7.12686 | 232 ft | 8 kts | 139° |
| 2026-04-25 18:12 | 50.87711 | 7.12783 | 232 ft | 17 kts | 137° |
| 2026-04-25 18:12 | 50.87625 | 7.12908 | 232 ft | 16 kts | 137° |
| 2026-04-25 18:12 | 50.87545 | 7.13023 | 232 ft | 18 kts | 138° |
| 2026-04-25 18:12 | 50.87425 | 7.13197 | 232 ft | 27 kts | 137° |
| 2026-04-25 18:13 | 50.87291 | 7.13390 | 233 ft | 26 kts | 137° |
| 2026-04-25 18:13 | 50.87163 | 7.13577 | 237 ft | 25 kts | 137° |
| 2026-04-25 18:13 | 50.87041 | 7.13752 | 242 ft | 22 kts | 137° |
| 2026-04-25 18:14 | 50.86871 | 7.14000 | 255 ft | 10 kts | 137° |
| 2026-04-25 18:14 | 50.86796 | 7.14108 | 255 ft | 17 kts | 138° |
| 2026-04-25 18:14 | 50.86713 | 7.14165 | 257 ft | 10 kts | 140° |
| 2026-04-25 18:14 | 50.86674 | 7.14222 | 260 ft | 5 kts | 138° |
| 2026-04-25 18:15 | 50.86602 | 7.14331 | 261 ft | 25 kts | 134° |
| 2026-04-25 18:15 | 50.86473 | 7.14515 | 268 ft | 23 kts | 137° |
| 2026-04-25 18:15 | 50.86363 | 7.14674 | 274 ft | 19 kts | 137° |
| 2026-04-25 18:15 | 50.86259 | 7.14825 | 280 ft | 20 kts | 137° |
| 2026-04-25 18:16 | 50.86155 | 7.14977 | 285 ft | 22 kts | 138° |
| 2026-04-25 18:16 | 50.86058 | 7.15124 | 293 ft | 16 kts | 126° |
| 2026-04-25 18:16 | 50.86131 | 7.15357 | 291 ft | 16 kts | 6° |
| 2026-04-25 18:17 | 50.86213 | 7.15338 | 288 ft | 0 kts | 346° |
| 2026-04-25 18:18 | 50.86215 | 7.15337 | 288 ft | 3 kts | 346° |
| 2026-04-25 18:19 | 50.86270 | 7.15317 | 287 ft | 12 kts | 348° |
| 2026-04-25 18:19 | 50.86342 | 7.15307 | 285 ft | 10 kts | 17° |
| 2026-04-25 18:19 | 50.86394 | 7.15307 | 289 ft | 9 kts | 317° |
| 2026-04-25 18:19 | 50.86519 | 7.15123 | 279 ft | 56 kts | 317° |
| 2026-04-25 18:20 | 50.86795 | 7.14722 | 266 ft | 102 kts | 317° |
| 2026-04-25 18:20 | 50.87723 | 7.13378 | 412 ft | 154 kts | 319° |
| 2026-04-25 18:20 | 50.88528 | 7.12235 | 1141 ft | 156 kts | 318° |
| 2026-04-25 18:20 | 50.89476 | 7.11344 | 1637 ft | 172 kts | 350° |
| 2026-04-25 18:21 | 50.90715 | 7.11722 | 1930 ft | 196 kts | 21° |
| 2026-04-25 18:21 | 50.92008 | 7.12651 | 2337 ft | 209 kts | 21° |
| 2026-04-25 18:21 | 50.93280 | 7.13816 | 3007 ft | 215 kts | 40° |
| 2026-04-25 18:21 | 50.94172 | 7.15826 | 3521 ft | 238 kts | 58° |
| 2026-04-25 18:22 | 50.94956 | 7.18277 | 3958 ft | 259 kts | 60° |
| 2026-04-25 18:22 | 50.95225 | 7.19149 | 4196 ft | 262 kts | 60° |
| 2026-04-25 18:22 | 50.96570 | 7.23542 | 5513 ft | 270 kts | 60° |
| 2026-04-25 18:22 | 50.97403 | 7.26227 | 6376 ft | 273 kts | 59° |
| 2026-04-25 18:23 | 50.98253 | 7.28941 | 7148 ft | 277 kts | 59° |
| 2026-04-25 18:23 | 50.99122 | 7.31700 | 7919 ft | 281 kts | 59° |
| 2026-04-25 18:23 | 51.00001 | 7.34491 | 8719 ft | 285 kts | 60° |
| 2026-04-25 18:23 | 51.00879 | 7.37288 | 9523 ft | 289 kts | 61° |
| 2026-04-25 18:24 | 51.01529 | 7.40357 | 10283 ft | 298 kts | 77° |
| 2026-04-25 18:24 | 51.01650 | 7.43711 | 10774 ft | 316 kts | 93° |
| 2026-04-25 18:24 | 51.01145 | 7.47255 | 10968 ft | 342 kts | 106° |
| 2026-04-25 18:24 | 51.00401 | 7.50971 | 11163 ft | 363 kts | 106° |
| 2026-04-25 18:25 | 50.99625 | 7.54845 | 11669 ft | 372 kts | 106° |
| 2026-04-25 18:25 | 50.98838 | 7.58799 | 12294 ft | 378 kts | 106° |
| 2026-04-25 18:25 | 50.98047 | 7.62811 | 12933 ft | 383 kts | 105° |
| 2026-04-25 18:25 | 50.97254 | 7.66859 | 13575 ft | 387 kts | 106° |
| 2026-04-25 18:26 | 50.96446 | 7.70966 | 14187 ft | 392 kts | 106° |
| 2026-04-25 18:26 | 50.95625 | 7.75119 | 14766 ft | 396 kts | 106° |
| 2026-04-25 18:26 | 50.95074 | 7.77891 | 15153 ft | 398 kts | 106° |
| 2026-04-25 18:26 | 50.94080 | 7.82008 | 15730 ft | 403 kts | 115° |
| 2026-04-25 18:27 | 50.92649 | 7.85855 | 16310 ft | 407 kts | 123° |
| 2026-04-25 18:27 | 50.91077 | 7.89602 | 16886 ft | 410 kts | 123° |
| 2026-04-25 18:27 | 50.88979 | 7.94622 | 17639 ft | 414 kts | 123° |
| 2026-04-25 18:27 | 50.87380 | 7.98444 | 18187 ft | 418 kts | 123° |
| 2026-04-25 18:28 | 50.86293 | 8.01036 | 18541 ft | 420 kts | 123° |
| 2026-04-25 18:28 | 50.84690 | 8.04852 | 18999 ft | 423 kts | 123° |
| 2026-04-25 18:28 | 50.83057 | 8.08743 | 19464 ft | 426 kts | 123° |
| 2026-04-25 18:29 | 50.79754 | 8.16608 | 20406 ft | 432 kts | 123° |
| 2026-04-25 18:29 | 50.78081 | 8.20575 | 20843 ft | 435 kts | 123° |
| 2026-04-25 18:30 | 50.72974 | 8.32609 | 22163 ft | 444 kts | 123° |
| 2026-04-25 18:30 | 50.71187 | 8.36603 | 22572 ft | 447 kts | 129° |
| 2026-04-25 18:30 | 50.69046 | 8.40183 | 22981 ft | 450 kts | 139° |
| 2026-04-25 18:30 | 50.66557 | 8.43189 | 23391 ft | 451 kts | 148° |
| 2026-04-25 18:31 | 50.63851 | 8.45585 | 23780 ft | 453 kts | 153° |
| 2026-04-25 18:31 | 50.61062 | 8.47925 | 24122 ft | 455 kts | 153° |
| 2026-04-25 18:31 | 50.58262 | 8.50284 | 24447 ft | 458 kts | 153° |
| 2026-04-25 18:31 | 50.55447 | 8.52661 | 24772 ft | 460 kts | 153° |
| 2026-04-25 18:32 | 50.52622 | 8.55045 | 25113 ft | 462 kts | 153° |
| 2026-04-25 18:32 | 50.49775 | 8.57445 | 25435 ft | 465 kts | 153° |
| 2026-04-25 18:32 | 50.46918 | 8.59858 | 25752 ft | 467 kts | 152° |
| 2026-04-25 18:32 | 50.44185 | 8.62643 | 26070 ft | 471 kts | 143° |
| 2026-04-25 18:33 | 50.41718 | 8.66042 | 26380 ft | 473 kts | 136° |
| 2026-04-25 18:33 | 50.39342 | 8.69654 | 26693 ft | 476 kts | 136° |
| 2026-04-25 18:33 | 50.36959 | 8.73263 | 27011 ft | 478 kts | 136° |
| 2026-04-25 18:33 | 50.34555 | 8.76888 | 27298 ft | 480 kts | 136° |
| 2026-04-25 18:34 | 50.32143 | 8.80511 | 27586 ft | 483 kts | 136° |
| 2026-04-25 18:34 | 50.29712 | 8.84156 | 27864 ft | 485 kts | 136° |
| 2026-04-25 18:34 | 50.27276 | 8.87802 | 28155 ft | 487 kts | 136° |
| 2026-04-25 18:34 | 50.24852 | 8.91432 | 28429 ft | 489 kts | 136° |
| 2026-04-25 18:35 | 50.22380 | 8.95126 | 28697 ft | 491 kts | 136° |
| 2026-04-25 18:35 | 50.19910 | 8.98810 | 28966 ft | 493 kts | 136° |
| 2026-04-25 18:35 | 50.17418 | 9.02520 | 29234 ft | 495 kts | 136° |
| 2026-04-25 18:35 | 50.14917 | 9.06238 | 29476 ft | 497 kts | 136° |
| 2026-04-25 18:36 | 50.12415 | 9.09952 | 29841 ft | 497 kts | 136° |
| 2026-04-25 18:36 | 50.09902 | 9.13670 | 30219 ft | 496 kts | 136° |
| 2026-04-25 18:36 | 50.07430 | 9.17322 | 30541 ft | 495 kts | 136° |
| 2026-04-25 18:36 | 50.04930 | 9.21013 | 30873 ft | 494 kts | 136° |
| 2026-04-25 18:37 | 50.02440 | 9.24695 | 31199 ft | 493 kts | 136° |
| 2026-04-25 18:37 | 49.99955 | 9.28373 | 31538 ft | 492 kts | 136° |
| 2026-04-25 18:37 | 49.97475 | 9.32039 | 31880 ft | 491 kts | 136° |
| 2026-04-25 18:37 | 49.95000 | 9.35687 | 32220 ft | 490 kts | 136° |
| 2026-04-25 18:38 | 49.92528 | 9.39318 | 32545 ft | 489 kts | 137° |
| 2026-04-25 18:38 | 49.90059 | 9.42937 | 32884 ft | 488 kts | 137° |
| 2026-04-25 18:38 | 49.87595 | 9.46544 | 33076 ft | 487 kts | 137° |
| 2026-04-25 18:38 | 49.85123 | 9.50158 | 33120 ft | 486 kts | 137° |
| 2026-04-25 18:39 | 49.80199 | 9.57341 | 33391 ft | 486 kts | 137° |
| 2026-04-25 18:39 | 49.77769 | 9.60876 | 33728 ft | 485 kts | 137° |
| 2026-04-25 18:39 | 49.75312 | 9.64442 | 34063 ft | 484 kts | 137° |
| 2026-04-25 18:40 | 49.72853 | 9.68005 | 34354 ft | 483 kts | 137° |
| 2026-04-25 18:40 | 49.70401 | 9.71554 | 34622 ft | 482 kts | 137° |
| 2026-04-25 18:40 | 49.67952 | 9.75090 | 34882 ft | 482 kts | 137° |
| 2026-04-25 18:40 | 49.65507 | 9.78617 | 35140 ft | 481 kts | 137° |
| 2026-04-25 18:41 | 49.63058 | 9.82146 | 35385 ft | 481 kts | 137° |
| 2026-04-25 18:41 | 49.60645 | 9.85622 | 35620 ft | 480 kts | 137° |
| 2026-04-25 18:41 | 49.58202 | 9.89135 | 35855 ft | 480 kts | 137° |
| 2026-04-25 18:41 | 49.55763 | 9.92638 | 36075 ft | 479 kts | 137° |
| 2026-04-25 18:42 | 49.53312 | 9.96153 | 36289 ft | 479 kts | 137° |
| 2026-04-25 18:42 | 49.51688 | 9.98477 | 36446 ft | 479 kts | 138° |
| 2026-04-25 18:42 | 49.48455 | 10.03096 | 36719 ft | 478 kts | 138° |
| 2026-04-25 18:42 | 49.45984 | 10.06617 | 36930 ft | 478 kts | 138° |
| 2026-04-25 18:43 | 49.43574 | 10.10046 | 37084 ft | 478 kts | 138° |
| 2026-04-25 18:43 | 49.41132 | 10.13514 | 37116 ft | 479 kts | 138° |
| 2026-04-25 18:43 | 49.36237 | 10.20461 | 37117 ft | 479 kts | 138° |
| 2026-04-25 18:44 | 49.31332 | 10.27406 | 37107 ft | 480 kts | 138° |
| 2026-04-25 18:44 | 49.26379 | 10.34399 | 37115 ft | 486 kts | 138° |
| 2026-04-25 18:45 | 49.21445 | 10.41396 | 37115 ft | 487 kts | 137° |
| 2026-04-25 18:45 | 49.16579 | 10.48616 | 37122 ft | 488 kts | 136° |
| 2026-04-25 18:46 | 49.11754 | 10.55911 | 37130 ft | 488 kts | 136° |
| 2026-04-25 18:46 | 49.06904 | 10.63156 | 37137 ft | 488 kts | 136° |
| 2026-04-25 18:47 | 49.02019 | 10.70342 | 37149 ft | 488 kts | 136° |
| 2026-04-25 18:47 | 48.97123 | 10.77501 | 37154 ft | 488 kts | 136° |
| 2026-04-25 18:48 | 48.92235 | 10.84668 | 37145 ft | 488 kts | 136° |
| 2026-04-25 18:48 | 48.87347 | 10.91833 | 37124 ft | 488 kts | 136° |
| 2026-04-25 18:49 | 48.82453 | 10.98974 | 37113 ft | 488 kts | 136° |
| 2026-04-25 18:49 | 48.77551 | 11.06094 | 37103 ft | 488 kts | 136° |
| 2026-04-25 18:50 | 48.72648 | 11.13199 | 37100 ft | 488 kts | 136° |
| 2026-04-25 18:50 | 48.67744 | 11.20292 | 37101 ft | 487 kts | 137° |
| 2026-04-25 18:51 | 48.64011 | 11.26723 | 37100 ft | 487 kts | 123° |
| 2026-04-25 18:51 | 48.60255 | 11.37223 | 37099 ft | 486 kts | 116° |
| 2026-04-25 18:52 | 48.57161 | 11.46298 | 37102 ft | 486 kts | 116° |
| 2026-04-25 18:52 | 48.54040 | 11.55346 | 37100 ft | 486 kts | 116° |
| 2026-04-25 18:53 | 48.50918 | 11.64386 | 37097 ft | 486 kts | 116° |
| 2026-04-25 18:53 | 48.47789 | 11.73429 | 37098 ft | 486 kts | 116° |
| 2026-04-25 18:54 | 48.43111 | 11.86908 | 37098 ft | 486 kts | 116° |
| 2026-04-25 18:55 | 48.39973 | 11.95917 | 37095 ft | 486 kts | 116° |
| 2026-04-25 18:55 | 48.36826 | 12.04912 | 37097 ft | 486 kts | 117° |
| 2026-04-25 18:56 | 48.33679 | 12.13869 | 37116 ft | 482 kts | 117° |
| 2026-04-25 18:56 | 48.30537 | 12.22764 | 37114 ft | 480 kts | 117° |
| 2026-04-25 18:57 | 48.27405 | 12.31609 | 37110 ft | 478 kts | 117° |
| 2026-04-25 18:57 | 48.24286 | 12.40402 | 37102 ft | 477 kts | 117° |
| 2026-04-25 18:58 | 48.21165 | 12.49170 | 37102 ft | 476 kts | 117° |
| 2026-04-25 18:58 | 48.16464 | 12.62287 | 37097 ft | 476 kts | 117° |
| 2026-04-25 18:59 | 48.08859 | 12.78395 | 37095 ft | 475 kts | 130° |
| 2026-04-25 19:00 | 48.02455 | 12.89671 | 37102 ft | 475 kts | 130° |
| 2026-04-25 19:01 | 47.96030 | 13.00946 | 37104 ft | 474 kts | 130° |
| 2026-04-25 19:01 | 47.91757 | 13.08436 | 37104 ft | 474 kts | 130° |
| 2026-04-25 19:02 | 47.85347 | 13.19623 | 37103 ft | 473 kts | 130° |
| 2026-04-25 19:03 | 47.80357 | 13.28296 | 37097 ft | 472 kts | 131° |
| 2026-04-25 19:03 | 47.74657 | 13.38157 | 37093 ft | 472 kts | 131° |
| 2026-04-25 19:04 | 47.68231 | 13.49217 | 37091 ft | 472 kts | 131° |
| 2026-04-25 19:05 | 47.59663 | 13.63957 | 37097 ft | 471 kts | 131° |
| 2026-04-25 19:06 | 47.55378 | 13.71288 | 37094 ft | 470 kts | 131° |
| 2026-04-25 19:06 | 47.48943 | 13.82233 | 37082 ft | 470 kts | 132° |
| 2026-04-25 19:07 | 47.42536 | 13.93105 | 37071 ft | 469 kts | 132° |
| 2026-04-25 19:08 | 47.36094 | 14.04012 | 37067 ft | 470 kts | 133° |
| 2026-04-25 19:09 | 47.28934 | 14.16055 | 37059 ft | 469 kts | 133° |
| 2026-04-25 19:10 | 47.21056 | 14.29255 | 37044 ft | 469 kts | 134° |
| 2026-04-25 19:10 | 47.17465 | 14.35236 | 37040 ft | 468 kts | 134° |
| 2026-04-25 19:11 | 47.13146 | 14.42425 | 37035 ft | 469 kts | 134° |
| 2026-04-25 19:11 | 47.08829 | 14.49602 | 37038 ft | 469 kts | 134° |
| 2026-04-25 19:12 | 47.04498 | 14.56770 | 37032 ft | 470 kts | 134° |
| 2026-04-25 19:12 | 47.00170 | 14.63930 | 37013 ft | 469 kts | 135° |
| 2026-04-25 19:13 | 46.95856 | 14.71040 | 37009 ft | 470 kts | 135° |
| 2026-04-25 19:13 | 46.91492 | 14.78198 | 37004 ft | 472 kts | 135° |
| 2026-04-25 19:14 | 46.87119 | 14.85347 | 36996 ft | 472 kts | 135° |
| 2026-04-25 19:14 | 46.82733 | 14.92509 | 36987 ft | 473 kts | 135° |
| 2026-04-25 19:15 | 46.78345 | 14.99675 | 36982 ft | 473 kts | 135° |
| 2026-04-25 19:15 | 46.73950 | 15.06818 | 36975 ft | 473 kts | 135° |
| 2026-04-25 19:16 | 46.69535 | 15.13968 | 36977 ft | 474 kts | 135° |
| 2026-04-25 19:16 | 46.65142 | 15.21073 | 36977 ft | 474 kts | 135° |
| 2026-04-25 19:17 | 46.60717 | 15.28209 | 36984 ft | 475 kts | 135° |
| 2026-04-25 19:17 | 46.56286 | 15.35342 | 36995 ft | 475 kts | 135° |
| 2026-04-25 19:18 | 46.51848 | 15.42472 | 36995 ft | 475 kts | 135° |
| 2026-04-25 19:18 | 46.47427 | 15.49548 | 36996 ft | 474 kts | 135° |
| 2026-04-25 19:19 | 46.42978 | 15.56652 | 36998 ft | 474 kts | 135° |
| 2026-04-25 19:19 | 46.38560 | 15.63689 | 37004 ft | 474 kts | 135° |
| 2026-04-25 19:20 | 46.34111 | 15.70758 | 36992 ft | 474 kts | 136° |
| 2026-04-25 19:20 | 46.29656 | 15.77805 | 36992 ft | 474 kts | 136° |
| 2026-04-25 19:21 | 46.25201 | 15.84760 | 36993 ft | 473 kts | 137° |
| 2026-04-25 19:21 | 46.18185 | 15.94809 | 36986 ft | 473 kts | 140° |
| 2026-04-25 19:22 | 46.13750 | 16.00981 | 36979 ft | 473 kts | 139° |
| 2026-04-25 19:23 | 46.06727 | 16.10923 | 36972 ft | 474 kts | 139° |
| 2026-04-25 19:23 | 45.99672 | 16.20942 | 36968 ft | 474 kts | 139° |
| 2026-04-25 19:24 | 45.94962 | 16.27592 | 36967 ft | 475 kts | 139° |
| 2026-04-25 19:25 | 45.85513 | 16.40876 | 36974 ft | 476 kts | 139° |
| 2026-04-25 19:25 | 45.80774 | 16.47507 | 36979 ft | 476 kts | 139° |
| 2026-04-25 19:26 | 45.76028 | 16.54131 | 36983 ft | 476 kts | 139° |
| 2026-04-25 19:26 | 45.71276 | 16.60750 | 36983 ft | 477 kts | 139° |
| 2026-04-25 19:27 | 45.67320 | 16.66247 | 36988 ft | 477 kts | 139° |
| 2026-04-25 19:27 | 45.61773 | 16.73943 | 36986 ft | 476 kts | 140° |
| 2026-04-25 19:28 | 45.57026 | 16.80509 | 36987 ft | 476 kts | 140° |
| 2026-04-25 19:28 | 45.52283 | 16.87047 | 36982 ft | 476 kts | 139° |
| 2026-04-25 19:29 | 45.47509 | 16.93608 | 36983 ft | 476 kts | 140° |
| 2026-04-25 19:29 | 45.42737 | 17.00159 | 36985 ft | 477 kts | 139° |
| 2026-04-25 19:30 | 45.37965 | 17.06712 | 36982 ft | 477 kts | 139° |
| 2026-04-25 19:30 | 45.33180 | 17.13235 | 36984 ft | 477 kts | 140° |
| 2026-04-25 19:31 | 45.28391 | 17.19751 | 36987 ft | 477 kts | 139° |
| 2026-04-25 19:31 | 45.23598 | 17.26279 | 36996 ft | 477 kts | 139° |
| 2026-04-25 19:32 | 45.18798 | 17.32788 | 36997 ft | 477 kts | 139° |
| 2026-04-25 19:32 | 45.14805 | 17.38184 | 36997 ft | 477 kts | 140° |
| 2026-04-25 19:33 | 45.08676 | 17.44758 | 36997 ft | 472 kts | 148° |
| 2026-04-25 19:33 | 45.03340 | 17.50059 | 36996 ft | 472 kts | 148° |
| 2026-04-25 19:34 | 44.97969 | 17.55396 | 36994 ft | 472 kts | 148° |
| 2026-04-25 19:34 | 44.92590 | 17.60728 | 36996 ft | 472 kts | 148° |
| 2026-04-25 19:35 | 44.87212 | 17.66039 | 36995 ft | 472 kts | 148° |
| 2026-04-25 19:35 | 44.81827 | 17.71346 | 37000 ft | 472 kts | 148° |
| 2026-04-25 19:36 | 44.76488 | 17.76597 | 37004 ft | 471 kts | 148° |
| 2026-04-25 19:36 | 44.71091 | 17.81877 | 37004 ft | 471 kts | 148° |
| 2026-04-25 19:37 | 44.65709 | 17.87138 | 37004 ft | 471 kts | 148° |
| 2026-04-25 19:37 | 44.60357 | 17.92373 | 37012 ft | 471 kts | 148° |
| 2026-04-25 19:38 | 44.54970 | 17.97636 | 37014 ft | 471 kts | 148° |
| 2026-04-25 19:38 | 44.49582 | 18.02874 | 37018 ft | 471 kts | 148° |
| 2026-04-25 19:39 | 44.44181 | 18.08104 | 37022 ft | 472 kts | 148° |
| 2026-04-25 19:39 | 44.38811 | 18.13302 | 37023 ft | 471 kts | 148° |
| 2026-04-25 19:40 | 44.33813 | 18.18131 | 37021 ft | 471 kts | 148° |
| 2026-04-25 19:40 | 44.28410 | 18.23325 | 37021 ft | 471 kts | 148° |
| 2026-04-25 19:41 | 44.23009 | 18.28524 | 37021 ft | 471 kts | 148° |
| 2026-04-25 19:41 | 44.19437 | 18.31955 | 37021 ft | 471 kts | 148° |
| 2026-04-25 19:42 | 44.12244 | 18.38838 | 37032 ft | 471 kts | 148° |
| 2026-04-25 19:42 | 44.06847 | 18.43986 | 37036 ft | 471 kts | 148° |
| 2026-04-25 19:43 | 44.01438 | 18.49138 | 37044 ft | 470 kts | 148° |
| 2026-04-25 19:43 | 43.96039 | 18.54273 | 37050 ft | 470 kts | 148° |
| 2026-04-25 19:44 | 43.90635 | 18.59392 | 37044 ft | 470 kts | 148° |
| 2026-04-25 19:44 | 43.85232 | 18.64504 | 37052 ft | 470 kts | 148° |
| 2026-04-25 19:45 | 43.79832 | 18.69608 | 37047 ft | 470 kts | 147° |
| 2026-04-25 19:45 | 43.74433 | 18.74700 | 37045 ft | 470 kts | 148° |
| 2026-04-25 19:46 | 43.69025 | 18.79773 | 37048 ft | 470 kts | 147° |
| 2026-04-25 19:46 | 43.63601 | 18.84853 | 37046 ft | 470 kts | 147° |
| 2026-04-25 19:47 | 43.58194 | 18.89914 | 37046 ft | 469 kts | 147° |
| 2026-04-25 19:47 | 43.52798 | 18.94956 | 37044 ft | 469 kts | 147° |
| 2026-04-25 19:48 | 43.47391 | 18.99998 | 37043 ft | 469 kts | 147° |
| 2026-04-25 19:48 | 43.42015 | 19.04996 | 37044 ft | 468 kts | 147° |
| 2026-04-25 19:49 | 43.38405 | 19.08352 | 37048 ft | 468 kts | 147° |
| 2026-04-25 19:49 | 43.31216 | 19.15009 | 37052 ft | 468 kts | 147° |
| 2026-04-25 19:50 | 43.23109 | 19.22478 | 37052 ft | 468 kts | 147° |
| 2026-04-25 19:51 | 43.17709 | 19.27438 | 37057 ft | 467 kts | 147° |
| 2026-04-25 19:51 | 43.12311 | 19.32394 | 37057 ft | 467 kts | 147° |
| 2026-04-25 19:52 | 43.06915 | 19.37344 | 37052 ft | 467 kts | 147° |
| 2026-04-25 19:52 | 43.01523 | 19.42291 | 37051 ft | 466 kts | 147° |
| 2026-04-25 19:53 | 42.96129 | 19.47230 | 37055 ft | 466 kts | 147° |
| 2026-04-25 19:53 | 42.90725 | 19.52145 | 37051 ft | 466 kts | 147° |
| 2026-04-25 19:54 | 42.85325 | 19.57040 | 37051 ft | 466 kts | 147° |
| 2026-04-25 19:54 | 42.79927 | 19.61938 | 37051 ft | 466 kts | 147° |
| 2026-04-25 19:55 | 42.74535 | 19.66831 | 37051 ft | 465 kts | 147° |
| 2026-04-25 19:55 | 42.69144 | 19.71694 | 37050 ft | 465 kts | 147° |
| 2026-04-25 19:56 | 42.63743 | 19.76544 | 37049 ft | 465 kts | 147° |
| 2026-04-25 19:56 | 42.58340 | 19.81397 | 37050 ft | 465 kts | 147° |
| 2026-04-25 19:57 | 42.52945 | 19.86248 | 37055 ft | 465 kts | 146° |
| 2026-04-25 19:57 | 42.48458 | 19.90276 | 37052 ft | 465 kts | 146° |
| 2026-04-25 19:58 | 42.43061 | 19.95104 | 37047 ft | 465 kts | 146° |
| 2026-04-25 19:58 | 42.37654 | 19.99920 | 37049 ft | 464 kts | 147° |
| 2026-04-25 19:59 | 42.32254 | 20.04716 | 37050 ft | 464 kts | 146° |
| 2026-04-25 19:59 | 42.26855 | 20.09507 | 37048 ft | 464 kts | 146° |
| 2026-04-25 20:00 | 42.21457 | 20.14288 | 37048 ft | 463 kts | 146° |
| 2026-04-25 20:00 | 42.16070 | 20.19054 | 37047 ft | 463 kts | 146° |
| 2026-04-25 20:01 | 42.07991 | 20.26189 | 37048 ft | 463 kts | 146° |
| 2026-04-25 20:01 | 42.02597 | 20.30933 | 37049 ft | 463 kts | 146° |
| 2026-04-25 20:02 | 41.97204 | 20.35662 | 37050 ft | 463 kts | 146° |
| 2026-04-25 20:02 | 41.91841 | 20.40363 | 37051 ft | 462 kts | 146° |
| 2026-04-25 20:03 | 41.86420 | 20.45107 | 37051 ft | 462 kts | 146° |
| 2026-04-25 20:03 | 41.81031 | 20.49803 | 37052 ft | 462 kts | 146° |
| 2026-04-25 20:04 | 41.75668 | 20.54485 | 37055 ft | 462 kts | 145° |
| 2026-04-25 20:04 | 41.70383 | 20.59356 | 37048 ft | 461 kts | 143° |
| 2026-04-25 20:05 | 41.65159 | 20.64348 | 37049 ft | 461 kts | 143° |
| 2026-04-25 20:05 | 41.59918 | 20.69306 | 37051 ft | 461 kts | 143° |
| 2026-04-25 20:06 | 41.54648 | 20.74213 | 37054 ft | 461 kts | 144° |
| 2026-04-25 20:06 | 41.49376 | 20.79095 | 37056 ft | 461 kts | 144° |
| 2026-04-25 20:07 | 41.44104 | 20.83978 | 37058 ft | 460 kts | 143° |
| 2026-04-25 20:07 | 41.38857 | 20.88832 | 37060 ft | 460 kts | 143° |
| 2026-04-25 20:08 | 41.33593 | 20.93698 | 37062 ft | 460 kts | 143° |
| 2026-04-25 20:08 | 41.28357 | 20.98532 | 37065 ft | 460 kts | 143° |
| 2026-04-25 20:09 | 41.23090 | 21.03375 | 37064 ft | 460 kts | 143° |
| 2026-04-25 20:09 | 41.17823 | 21.08202 | 37061 ft | 459 kts | 143° |
| 2026-04-25 20:10 | 41.12563 | 21.13013 | 37056 ft | 459 kts | 143° |
| 2026-04-25 20:10 | 41.07336 | 21.17798 | 37060 ft | 459 kts | 143° |
| 2026-04-25 20:11 | 41.02082 | 21.22598 | 37060 ft | 458 kts | 143° |
| 2026-04-25 20:11 | 40.96812 | 21.27394 | 37061 ft | 458 kts | 143° |
| 2026-04-25 20:12 | 40.91550 | 21.32177 | 37065 ft | 458 kts | 143° |
| 2026-04-25 20:12 | 40.87208 | 21.36124 | 37062 ft | 458 kts | 143° |
| 2026-04-25 20:13 | 40.81116 | 21.41784 | 37066 ft | 457 kts | 142° |
| 2026-04-25 20:13 | 40.75940 | 21.46678 | 37070 ft | 457 kts | 142° |
| 2026-04-25 20:14 | 40.70789 | 21.51524 | 37067 ft | 457 kts | 142° |
| 2026-04-25 20:14 | 40.65600 | 21.56367 | 37071 ft | 457 kts | 142° |
| 2026-04-25 20:15 | 40.60409 | 21.61210 | 37083 ft | 457 kts | 142° |
| 2026-04-25 20:15 | 40.55220 | 21.66030 | 37078 ft | 457 kts | 142° |
| 2026-04-25 20:16 | 40.50018 | 21.70855 | 37088 ft | 457 kts | 142° |
| 2026-04-25 20:16 | 40.44817 | 21.75670 | 37097 ft | 457 kts | 142° |
| 2026-04-25 20:17 | 40.39611 | 21.80485 | 37104 ft | 457 kts | 142° |
| 2026-04-25 20:17 | 40.34447 | 21.85250 | 37108 ft | 457 kts | 142° |
| 2026-04-25 20:18 | 40.29242 | 21.90039 | 37110 ft | 457 kts | 142° |
| 2026-04-25 20:18 | 40.24047 | 21.94817 | 37102 ft | 456 kts | 142° |
| 2026-04-25 20:19 | 40.18855 | 21.99589 | 37100 ft | 456 kts | 142° |
| 2026-04-25 20:19 | 40.13653 | 22.04348 | 37097 ft | 456 kts | 142° |
| 2026-04-25 20:20 | 40.08445 | 22.09107 | 37090 ft | 456 kts | 142° |
| 2026-04-25 20:20 | 40.03242 | 22.13851 | 37087 ft | 456 kts | 142° |
| 2026-04-25 20:21 | 39.98034 | 22.18586 | 37083 ft | 456 kts | 142° |
| 2026-04-25 20:21 | 39.92825 | 22.23321 | 37080 ft | 456 kts | 142° |
| 2026-04-25 20:22 | 39.89379 | 22.26453 | 37081 ft | 456 kts | 142° |
| 2026-04-25 20:22 | 39.82450 | 22.32733 | 37076 ft | 456 kts | 142° |
| 2026-04-25 20:23 | 39.77244 | 22.37431 | 37075 ft | 455 kts | 142° |
| 2026-04-25 20:23 | 39.72038 | 22.42117 | 37073 ft | 455 kts | 142° |
| 2026-04-25 20:24 | 39.66833 | 22.46810 | 37079 ft | 455 kts | 142° |
| 2026-04-25 20:24 | 39.61631 | 22.51495 | 37072 ft | 455 kts | 142° |
| 2026-04-25 20:25 | 39.56430 | 22.56160 | 37075 ft | 455 kts | 142° |
| 2026-04-25 20:25 | 39.51223 | 22.60822 | 37071 ft | 454 kts | 142° |
| 2026-04-25 20:26 | 39.46018 | 22.65463 | 37065 ft | 454 kts | 142° |
| 2026-04-25 20:26 | 39.40815 | 22.70103 | 37056 ft | 454 kts | 142° |
| 2026-04-25 20:27 | 39.35640 | 22.74710 | 37048 ft | 454 kts | 142° |
| 2026-04-25 20:27 | 39.30398 | 22.79358 | 37037 ft | 454 kts | 142° |
| 2026-04-25 20:28 | 39.25178 | 22.83991 | 37033 ft | 455 kts | 142° |
| 2026-04-25 20:28 | 39.20000 | 22.88580 | 37032 ft | 455 kts | 142° |
| 2026-04-25 20:29 | 39.14747 | 22.93228 | 37033 ft | 455 kts | 142° |
| 2026-04-25 20:29 | 39.09550 | 22.97807 | 37041 ft | 456 kts | 142° |
| 2026-04-25 20:30 | 39.04281 | 23.02443 | 37045 ft | 456 kts | 142° |
| 2026-04-25 20:30 | 38.99081 | 23.07018 | 37051 ft | 456 kts | 142° |
| 2026-04-25 20:31 | 38.93841 | 23.11613 | 37053 ft | 456 kts | 142° |
| 2026-04-25 20:31 | 38.88592 | 23.16209 | 37059 ft | 456 kts | 142° |
| 2026-04-25 20:32 | 38.83347 | 23.20795 | 37051 ft | 456 kts | 142° |
| 2026-04-25 20:32 | 38.78095 | 23.25374 | 37054 ft | 456 kts | 142° |
| 2026-04-25 20:33 | 38.72842 | 23.29947 | 37056 ft | 456 kts | 142° |
| 2026-04-25 20:33 | 38.69357 | 23.32970 | 37059 ft | 456 kts | 143° |
| 2026-04-25 20:34 | 38.62358 | 23.39048 | 37062 ft | 456 kts | 143° |
| 2026-04-25 20:34 | 38.57104 | 23.43605 | 37060 ft | 456 kts | 143° |
| 2026-04-25 20:35 | 38.51852 | 23.48147 | 37061 ft | 455 kts | 143° |
| 2026-04-25 20:35 | 38.46606 | 23.52677 | 37065 ft | 455 kts | 143° |
| 2026-04-25 20:36 | 38.41358 | 23.57204 | 37059 ft | 455 kts | 143° |
| 2026-04-25 20:36 | 38.36108 | 23.61719 | 37054 ft | 455 kts | 143° |
| 2026-04-25 20:37 | 38.30854 | 23.66217 | 37047 ft | 455 kts | 143° |
| 2026-04-25 20:37 | 38.26488 | 23.69956 | 37045 ft | 455 kts | 143° |
| 2026-04-25 20:38 | 38.20352 | 23.75194 | 37037 ft | 455 kts | 143° |
| 2026-04-25 20:38 | 38.15121 | 23.79667 | 37042 ft | 454 kts | 143° |
| 2026-04-25 20:39 | 38.10749 | 23.83397 | 37031 ft | 454 kts | 143° |
| 2026-04-25 20:39 | 38.06348 | 23.87138 | 37029 ft | 454 kts | 143° |
| 2026-04-25 20:40 | 38.00237 | 23.92328 | 37030 ft | 454 kts | 143° |
| 2026-04-25 20:40 | 37.94996 | 23.96794 | 37029 ft | 454 kts | 143° |
| 2026-04-25 20:41 | 37.89735 | 24.01255 | 37029 ft | 454 kts | 144° |
| 2026-04-25 20:41 | 37.84480 | 24.05682 | 37031 ft | 454 kts | 144° |
| 2026-04-25 20:42 | 37.79225 | 24.10114 | 37024 ft | 454 kts | 144° |
| 2026-04-25 20:42 | 37.73974 | 24.14549 | 37022 ft | 454 kts | 144° |
| 2026-04-25 20:43 | 37.68717 | 24.18973 | 37016 ft | 454 kts | 144° |
| 2026-04-25 20:43 | 37.63458 | 24.23376 | 37011 ft | 454 kts | 144° |
| 2026-04-25 20:44 | 37.58200 | 24.27782 | 37013 ft | 454 kts | 144° |
| 2026-04-25 20:44 | 37.52914 | 24.32145 | 37007 ft | 454 kts | 146° |
| 2026-04-25 20:45 | 37.47589 | 24.36322 | 37006 ft | 454 kts | 147° |
| 2026-04-25 20:45 | 37.42206 | 24.40481 | 37004 ft | 454 kts | 147° |
| 2026-04-25 20:46 | 37.36842 | 24.44675 | 37007 ft | 454 kts | 146° |
| 2026-04-25 20:46 | 37.31489 | 24.48891 | 37003 ft | 454 kts | 146° |
| 2026-04-25 20:47 | 37.26134 | 24.53096 | 36999 ft | 454 kts | 147° |
| 2026-04-25 20:47 | 37.20764 | 24.57276 | 36999 ft | 454 kts | 147° |
| 2026-04-25 20:48 | 37.15396 | 24.61441 | 37001 ft | 454 kts | 147° |
| 2026-04-25 20:48 | 37.10029 | 24.65620 | 36998 ft | 454 kts | 147° |
| 2026-04-25 20:49 | 37.04663 | 24.69794 | 36997 ft | 454 kts | 147° |
| 2026-04-25 20:49 | 36.99294 | 24.73949 | 36995 ft | 454 kts | 147° |
| 2026-04-25 20:50 | 36.93917 | 24.78100 | 36989 ft | 454 kts | 147° |
| 2026-04-25 20:50 | 36.88548 | 24.82246 | 36991 ft | 454 kts | 147° |
| 2026-04-25 20:51 | 36.83183 | 24.86399 | 36987 ft | 453 kts | 146° |
| 2026-04-25 20:51 | 36.77820 | 24.90548 | 36987 ft | 453 kts | 146° |
| 2026-04-25 20:52 | 36.73356 | 24.93992 | 36492 ft | 452 kts | 147° |
| 2026-04-25 20:52 | 36.69811 | 24.96723 | 35554 ft | 453 kts | 146° |
| 2026-04-25 20:52 | 36.67127 | 24.98785 | 34856 ft | 454 kts | 146° |
| 2026-04-25 20:53 | 36.64431 | 25.00853 | 34160 ft | 454 kts | 146° |
| 2026-04-25 20:53 | 36.61737 | 25.02916 | 33388 ft | 455 kts | 146° |
| 2026-04-25 20:53 | 36.59033 | 25.04986 | 32566 ft | 456 kts | 146° |
| 2026-04-25 20:53 | 36.56332 | 25.07052 | 31739 ft | 457 kts | 145° |
| 2026-04-25 20:54 | 36.53618 | 25.09127 | 30891 ft | 458 kts | 145° |
| 2026-04-25 20:54 | 36.50903 | 25.11201 | 30062 ft | 459 kts | 145° |
| 2026-04-25 20:54 | 36.48188 | 25.13276 | 29225 ft | 457 kts | 145° |
| 2026-04-25 20:54 | 36.45482 | 25.15344 | 28304 ft | 456 kts | 145° |
| 2026-04-25 20:55 | 36.42785 | 25.17400 | 27527 ft | 453 kts | 145° |
| 2026-04-25 20:55 | 36.40110 | 25.19431 | 26825 ft | 448 kts | 145° |
| 2026-04-25 20:55 | 36.37462 | 25.21440 | 26157 ft | 444 kts | 145° |
| 2026-04-25 20:55 | 36.34836 | 25.23430 | 25393 ft | 442 kts | 145° |
| 2026-04-25 20:56 | 36.32218 | 25.25418 | 24698 ft | 439 kts | 145° |
| 2026-04-25 20:56 | 36.29625 | 25.27390 | 24056 ft | 435 kts | 145° |
| 2026-04-25 20:56 | 36.27059 | 25.29342 | 23409 ft | 431 kts | 145° |
| 2026-04-25 20:56 | 36.24511 | 25.31274 | 22716 ft | 427 kts | 145° |
| 2026-04-25 20:57 | 36.21993 | 25.33179 | 22070 ft | 422 kts | 145° |
| 2026-04-25 20:57 | 36.19502 | 25.35063 | 21449 ft | 418 kts | 145° |
| 2026-04-25 20:57 | 36.17034 | 25.36929 | 20833 ft | 413 kts | 145° |
| 2026-04-25 20:57 | 36.14591 | 25.38776 | 20238 ft | 409 kts | 145° |
| 2026-04-25 20:58 | 36.12105 | 25.40465 | 19648 ft | 408 kts | 152° |
| 2026-04-25 20:58 | 36.09447 | 25.41675 | 19076 ft | 407 kts | 158° |
| 2026-04-25 20:58 | 36.06763 | 25.42755 | 18505 ft | 404 kts | 158° |
| 2026-04-25 20:58 | 36.04107 | 25.43818 | 17923 ft | 400 kts | 159° |
| 2026-04-25 20:59 | 36.01471 | 25.44872 | 17327 ft | 396 kts | 159° |
| 2026-04-25 20:59 | 35.98862 | 25.45917 | 16754 ft | 392 kts | 159° |
| 2026-04-25 20:59 | 35.96280 | 25.46951 | 16199 ft | 388 kts | 159° |
| 2026-04-25 20:59 | 35.93725 | 25.47975 | 15674 ft | 384 kts | 158° |
| 2026-04-25 21:00 | 35.91195 | 25.48991 | 15154 ft | 381 kts | 158° |
| 2026-04-25 21:00 | 35.90344 | 25.49333 | 14982 ft | 380 kts | 158° |
| 2026-04-25 21:00 | 35.83737 | 25.51987 | 13623 ft | 371 kts | 158° |
| 2026-04-25 21:01 | 35.81295 | 25.52969 | 13065 ft | 367 kts | 158° |
| 2026-04-25 21:01 | 35.78876 | 25.53938 | 12529 ft | 364 kts | 158° |
| 2026-04-25 21:01 | 35.76446 | 25.54907 | 11972 ft | 360 kts | 158° |
| 2026-04-25 21:01 | 35.74105 | 25.55840 | 11428 ft | 357 kts | 158° |
| 2026-04-25 21:02 | 35.71757 | 25.56777 | 11009 ft | 350 kts | 158° |
| 2026-04-25 21:02 | 35.69582 | 25.57904 | 10885 ft | 330 kts | 147° |
| 2026-04-25 21:02 | 35.67717 | 25.59409 | 10761 ft | 312 kts | 138° |
| 2026-04-25 21:02 | 35.66041 | 25.61071 | 10641 ft | 300 kts | 137° |
| 2026-04-25 21:03 | 35.64446 | 25.62644 | 10516 ft | 288 kts | 137° |
| 2026-04-25 21:03 | 35.62909 | 25.64155 | 10383 ft | 278 kts | 137° |
| 2026-04-25 21:03 | 35.61309 | 25.65466 | 10115 ft | 279 kts | 152° |
| 2026-04-25 21:03 | 35.59396 | 25.65961 | 9791 ft | 287 kts | 176° |
| 2026-04-25 21:04 | 35.57441 | 25.65416 | 9420 ft | 295 kts | 202° |
| 2026-04-25 21:04 | 35.55816 | 25.63848 | 9041 ft | 302 kts | 229° |
| 2026-04-25 21:04 | 35.54741 | 25.61623 | 8634 ft | 304 kts | 240° |
| 2026-04-25 21:04 | 35.53753 | 25.59327 | 8232 ft | 303 kts | 240° |
| 2026-04-25 21:05 | 35.52771 | 25.57047 | 7869 ft | 301 kts | 240° |
| 2026-04-25 21:05 | 35.51794 | 25.54780 | 7514 ft | 299 kts | 240° |
| 2026-04-25 21:05 | 35.50821 | 25.52529 | 7158 ft | 297 kts | 240° |
| 2026-04-25 21:05 | 35.49855 | 25.50297 | 6778 ft | 296 kts | 240° |
| 2026-04-25 21:06 | 35.48892 | 25.48079 | 6433 ft | 293 kts | 240° |
| 2026-04-25 21:06 | 35.47931 | 25.45874 | 6036 ft | 293 kts | 240° |
| 2026-04-25 21:06 | 35.46972 | 25.43678 | 5636 ft | 291 kts | 240° |
| 2026-04-25 21:06 | 35.46266 | 25.42302 | 5447 ft | 285 kts | 226° |
| 2026-04-25 21:07 | 35.44133 | 25.40777 | 5287 ft | 256 kts | 184° |
| 2026-04-25 21:07 | 35.42447 | 25.40920 | 5163 ft | 235 kts | 156° |
| 2026-04-25 21:07 | 35.41034 | 25.41788 | 5038 ft | 223 kts | 145° |
| 2026-04-25 21:07 | 35.39701 | 25.42704 | 4907 ft | 216 kts | 146° |
| 2026-04-25 21:08 | 35.38402 | 25.43589 | 4747 ft | 211 kts | 148° |
| 2026-04-25 21:08 | 35.36984 | 25.43991 | 4619 ft | 215 kts | 184° |
| 2026-04-25 21:08 | 35.35665 | 25.43193 | 4454 ft | 216 kts | 225° |
| 2026-04-25 21:08 | 35.34914 | 25.41602 | 4092 ft | 217 kts | 244° |
| 2026-04-25 21:09 | 35.33646 | 25.38261 | 3437 ft | 214 kts | 245° |
| 2026-04-25 21:09 | 35.33031 | 25.36609 | 3120 ft | 212 kts | 249° |
| 2026-04-25 21:09 | 35.32797 | 25.34854 | 2826 ft | 206 kts | 275° |
| 2026-04-25 21:10 | 35.32924 | 25.33134 | 2560 ft | 201 kts | 278° |
| 2026-04-25 21:10 | 35.33044 | 25.31439 | 2290 ft | 199 kts | 278° |
| 2026-04-25 21:10 | 35.33155 | 25.29798 | 2065 ft | 186 kts | 278° |
| 2026-04-25 21:10 | 35.33251 | 25.28322 | 1973 ft | 167 kts | 279° |
| 2026-04-25 21:11 | 35.33344 | 25.26937 | 1683 ft | 159 kts | 280° |
| 2026-04-25 21:11 | 35.33436 | 25.25618 | 1394 ft | 154 kts | 279° |
| 2026-04-25 21:11 | 35.33526 | 25.24336 | 1127 ft | 148 kts | 277° |
| 2026-04-25 21:11 | 35.33613 | 25.23111 | 893 ft | 141 kts | 275° |
| 2026-04-25 21:12 | 35.33698 | 25.21938 | 667 ft | 135 kts | 275° |
| 2026-04-25 21:12 | 35.33779 | 25.20817 | 434 ft | 131 kts | 275° |
| 2026-04-25 21:12 | 35.33857 | 25.19713 | 249 ft | 129 kts | 275° |
| 2026-04-25 21:12 | 35.33884 | 25.19346 | 180 ft | 128 kts | 275° |
| 2026-04-25 21:13 | 35.33991 | 25.17788 | 93 ft | 75 kts | 274° |
| 2026-04-25 21:13 | 35.34032 | 25.17217 | 90 ft | 53 kts | 274° |
| 2026-04-25 21:13 | 35.34047 | 25.16972 | 90 ft | 23 kts | 276° |
| 2026-04-25 21:13 | 35.34044 | 25.16851 | 91 ft | 7 kts | 218° |
| 2026-04-25 21:14 | 35.34015 | 25.16867 | 90 ft | 4 kts | 130° |
| 2026-04-25 21:14 | 35.33998 | 25.16894 | 90 ft | 6 kts | 125° |
| 2026-04-25 21:14 | 35.33970 | 25.16945 | 90 ft | 6 kts | 122° |
| 2026-04-25 21:14 | 35.33952 | 25.16990 | 91 ft | 5 kts | 112° |
| 2026-04-25 21:15 | 35.33945 | 25.17028 | 92 ft | 4 kts | 96° |
| 2026-04-25 21:15 | 35.33943 | 25.17058 | 91 ft | 3 kts | 95° |
| 2026-04-25 21:15 | 35.33941 | 25.17081 | 94 ft | 2 kts | 102° |
| 2026-04-25 21:15 | 35.33926 | 25.17095 | 90 ft | 2 kts | 161° |
| 2026-04-25 21:16 | 35.33916 | 25.17096 | 90 ft | 2 kts | 181° |
| 2026-04-25 21:16 | 35.33896 | 25.17095 | 91 ft | 3 kts | 182° |
| 2026-04-25 21:16 | 35.33879 | 25.17078 | 93 ft | 3 kts | 242° |
| 2026-04-25 21:16 | 35.33883 | 25.17068 | 95 ft | 1 kts | 311° |
| 2026-04-25 21:17 | 35.33895 | 25.17056 | 90 ft | 1 kts | 315° |
| 2026-04-25 21:17 | 35.33897 | 25.17054 | 90 ft | 0 kts | 315° |